sensor_id;sensor_type;location;lat;lon;timestamp;P1;durP1;ratioP1;P2;durP2;ratioP2
12476;SDS011;6303;51.504;6.300;2023-04-29T00:02:17;4.32;;;3.30;;
12476;SDS011;6303;51.504;6.300;2023-04-29T00:04:45;3.50;;;3.20;;
12476;SDS011;6303;51.504;6.300;2023-04-29T00:07:12;3.50;;;3.20;;
12476;SDS011;6303;51.504;6.300;2023-04-29T00:09:40;3.50;;;3.20;;
12476;SDS011;6303;51.504;6.300;2023-04-29T00:12:07;3.92;;;3.50;;
12476;SDS011;6303;51.504;6.300;2023-04-29T00:14:35;3.70;;;3.40;;
12476;SDS011;6303;51.504;6.300;2023-04-29T00:17:02;3.55;;;3.25;;
12476;SDS011;6303;51.504;6.300;2023-04-29T00:19:29;3.78;;;3.47;;
12476;SDS011;6303;51.504;6.300;2023-04-29T00:21:57;4.15;;;3.75;;
12476;SDS011;6303;51.504;6.300;2023-04-29T00:24:25;3.90;;;3.60;;
12476;SDS011;6303;51.504;6.300;2023-04-29T00:26:52;3.90;;;3.50;;
12476;SDS011;6303;51.504;6.300;2023-04-29T00:29:19;3.72;;;3.42;;
12476;SDS011;6303;51.504;6.300;2023-04-29T00:31:47;3.78;;;3.47;;
12476;SDS011;6303;51.504;6.300;2023-04-29T00:34:15;4.20;;;3.80;;
12476;SDS011;6303;51.504;6.300;2023-04-29T00:36:42;3.97;;;3.67;;
12476;SDS011;6303;51.504;6.300;2023-04-29T00:39:10;4.38;;;3.85;;
12476;SDS011;6303;51.504;6.300;2023-04-29T00:41:37;4.20;;;3.80;;
12476;SDS011;6303;51.504;6.300;2023-04-29T00:44:05;3.83;;;3.53;;
12476;SDS011;6303;51.504;6.300;2023-04-29T00:46:32;4.75;;;3.97;;
12476;SDS011;6303;51.504;6.300;2023-04-29T00:48:59;4.70;;;4.20;;
12476;SDS011;6303;51.504;6.300;2023-04-29T00:51:28;4.30;;;3.90;;
12476;SDS011;6303;51.504;6.300;2023-04-29T00:53:55;4.25;;;3.70;;
12476;SDS011;6303;51.504;6.300;2023-04-29T00:56:24;4.15;;;3.67;;
12476;SDS011;6303;51.504;6.300;2023-04-29T00:58:51;4.32;;;3.88;;
12476;SDS011;6303;51.504;6.300;2023-04-29T01:01:19;4.63;;;4.03;;
12476;SDS011;6303;51.504;6.300;2023-04-29T01:03:47;4.45;;;4.05;;
12476;SDS011;6303;51.504;6.300;2023-04-29T01:06:19;5.13;;;4.10;;
12476;SDS011;6303;51.504;6.300;2023-04-29T01:08:58;4.45;;;4.05;;
12476;SDS011;6303;51.504;6.300;2023-04-29T01:11:38;4.60;;;4.20;;
12476;SDS011;6303;51.504;6.300;2023-04-29T01:14:13;4.28;;;3.88;;
12476;SDS011;6303;51.504;6.300;2023-04-29T01:16:41;4.80;;;4.30;;
12476;SDS011;6303;51.504;6.300;2023-04-29T01:19:15;4.07;;;3.67;;
12476;SDS011;6303;51.504;6.300;2023-04-29T01:21:52;4.28;;;3.88;;
12476;SDS011;6303;51.504;6.300;2023-04-29T01:24:22;4.35;;;3.92;;
12476;SDS011;6303;51.504;6.300;2023-04-29T01:26:50;4.10;;;3.80;;
12476;SDS011;6303;51.504;6.300;2023-04-29T01:29:42;4.10;;;3.70;;
12476;SDS011;6303;51.504;6.300;2023-04-29T01:32:17;4.10;;;3.72;;
12476;SDS011;6303;51.504;6.300;2023-04-29T01:34:58;4.45;;;4.05;;
12476;SDS011;6303;51.504;6.300;2023-04-29T01:37:34;4.22;;;3.83;;
12476;SDS011;6303;51.504;6.300;2023-04-29T01:40:11;4.72;;;4.22;;
12476;SDS011;6303;51.504;6.300;2023-04-29T01:42:55;4.57;;;4.18;;
12476;SDS011;6303;51.504;6.300;2023-04-29T01:45:26;4.45;;;4.00;;
12476;SDS011;6303;51.504;6.300;2023-04-29T01:47:56;4.35;;;3.78;;
12476;SDS011;6303;51.504;6.300;2023-04-29T01:50:25;4.60;;;4.20;;
12476;SDS011;6303;51.504;6.300;2023-04-29T01:52:55;4.30;;;3.90;;
12476;SDS011;6303;51.504;6.300;2023-04-29T01:55:24;4.35;;;3.95;;
12476;SDS011;6303;51.504;6.300;2023-04-29T01:58:08;4.63;;;4.22;;
12476;SDS011;6303;51.504;6.300;2023-04-29T02:00:53;4.65;;;4.10;;
12476;SDS011;6303;51.504;6.300;2023-04-29T02:03:21;5.18;;;4.53;;
12476;SDS011;6303;51.504;6.300;2023-04-29T02:05:52;5.10;;;4.07;;
12476;SDS011;6303;51.504;6.300;2023-04-29T02:08:20;4.78;;;4.28;;
12476;SDS011;6303;51.504;6.300;2023-04-29T02:10:52;4.38;;;3.97;;
12476;SDS011;6303;51.504;6.300;2023-04-29T02:13:34;4.82;;;4.43;;
12476;SDS011;6303;51.504;6.300;2023-04-29T02:16:08;4.88;;;4.47;;
12476;SDS011;6303;51.504;6.300;2023-04-29T02:18:39;4.70;;;4.30;;
12476;SDS011;6303;51.504;6.300;2023-04-29T02:21:06;4.90;;;4.40;;
12476;SDS011;6303;51.504;6.300;2023-04-29T02:23:34;4.60;;;4.20;;
12476;SDS011;6303;51.504;6.300;2023-04-29T02:26:03;5.05;;;4.55;;
12476;SDS011;6303;51.504;6.300;2023-04-29T02:28:31;4.75;;;4.32;;
12476;SDS011;6303;51.504;6.300;2023-04-29T02:30:58;4.57;;;4.18;;
12476;SDS011;6303;51.504;6.300;2023-04-29T02:33:25;4.15;;;3.75;;
12476;SDS011;6303;51.504;6.300;2023-04-29T02:35:52;5.00;;;4.50;;
12476;SDS011;6303;51.504;6.300;2023-04-29T02:38:19;4.55;;;4.15;;
12476;SDS011;6303;51.504;6.300;2023-04-29T02:40:46;4.45;;;4.05;;
12476;SDS011;6303;51.504;6.300;2023-04-29T02:43:15;5.05;;;4.50;;
12476;SDS011;6303;51.504;6.300;2023-04-29T02:45:43;4.40;;;4.00;;
12476;SDS011;6303;51.504;6.300;2023-04-29T02:48:10;4.85;;;4.35;;
12476;SDS011;6303;51.504;6.300;2023-04-29T02:50:38;4.95;;;4.45;;
12476;SDS011;6303;51.504;6.300;2023-04-29T02:53:05;4.72;;;4.25;;
12476;SDS011;6303;51.504;6.300;2023-04-29T02:55:32;4.50;;;4.10;;
12476;SDS011;6303;51.504;6.300;2023-04-29T02:58:05;4.20;;;3.80;;
12476;SDS011;6303;51.504;6.300;2023-04-29T03:00:33;5.10;;;4.10;;
12476;SDS011;6303;51.504;6.300;2023-04-29T03:03:00;4.70;;;4.15;;
12476;SDS011;6303;51.504;6.300;2023-04-29T03:05:27;4.20;;;3.80;;
12476;SDS011;6303;51.504;6.300;2023-04-29T03:07:54;4.75;;;4.25;;
12476;SDS011;6303;51.504;6.300;2023-04-29T03:10:21;4.22;;;3.83;;
12476;SDS011;6303;51.504;6.300;2023-04-29T03:12:48;4.40;;;4.00;;
12476;SDS011;6303;51.504;6.300;2023-04-29T03:15:16;3.90;;;3.60;;
12476;SDS011;6303;51.504;6.300;2023-04-29T03:17:46;4.45;;;4.05;;
12476;SDS011;6303;51.504;6.300;2023-04-29T03:20:13;4.57;;;4.18;;
12476;SDS011;6303;51.504;6.300;2023-04-29T03:22:40;3.58;;;3.28;;
12476;SDS011;6303;51.504;6.300;2023-04-29T03:25:09;4.25;;;3.85;;
12476;SDS011;6303;51.504;6.300;2023-04-29T03:27:37;4.60;;;4.20;;
12476;SDS011;6303;51.504;6.300;2023-04-29T03:30:06;4.47;;;4.07;;
12476;SDS011;6303;51.504;6.300;2023-04-29T03:32:39;4.05;;;3.65;;
12476;SDS011;6303;51.504;6.300;2023-04-29T03:35:08;4.07;;;3.72;;
12476;SDS011;6303;51.504;6.300;2023-04-29T03:37:47;3.90;;;3.50;;
12476;SDS011;6303;51.504;6.300;2023-04-29T03:40:24;4.28;;;3.88;;
12476;SDS011;6303;51.504;6.300;2023-04-29T03:42:51;3.75;;;3.45;;
12476;SDS011;6303;51.504;6.300;2023-04-29T03:45:18;4.18;;;3.78;;
12476;SDS011;6303;51.504;6.300;2023-04-29T03:47:45;3.90;;;3.60;;
12476;SDS011;6303;51.504;6.300;2023-04-29T03:50:15;3.97;;;3.60;;
12476;SDS011;6303;51.504;6.300;2023-04-29T03:52:42;3.90;;;3.60;;
12476;SDS011;6303;51.504;6.300;2023-04-29T03:55:13;3.85;;;3.55;;
12476;SDS011;6303;51.504;6.300;2023-04-29T03:57:41;4.00;;;3.60;;
12476;SDS011;6303;51.504;6.300;2023-04-29T04:00:09;3.75;;;3.45;;
12476;SDS011;6303;51.504;6.300;2023-04-29T04:02:46;3.67;;;3.38;;
12476;SDS011;6303;51.504;6.300;2023-04-29T04:05:15;3.70;;;3.40;;
12476;SDS011;6303;51.504;6.300;2023-04-29T04:07:48;3.60;;;3.30;;
12476;SDS011;6303;51.504;6.300;2023-04-29T04:10:27;3.72;;;3.42;;
12476;SDS011;6303;51.504;6.300;2023-04-29T04:12:55;3.70;;;3.40;;
12476;SDS011;6303;51.504;6.300;2023-04-29T04:15:22;3.28;;;2.97;;
12476;SDS011;6303;51.504;6.300;2023-04-29T04:17:51;3.63;;;3.33;;
12476;SDS011;6303;51.504;6.300;2023-04-29T04:20:19;3.35;;;3.10;;
12476;SDS011;6303;51.504;6.300;2023-04-29T04:22:48;3.50;;;3.20;;
12476;SDS011;6303;51.504;6.300;2023-04-29T04:25:19;3.47;;;3.17;;
12476;SDS011;6303;51.504;6.300;2023-04-29T04:27:46;3.83;;;3.40;;
12476;SDS011;6303;51.504;6.300;2023-04-29T04:30:24;3.42;;;3.13;;
12476;SDS011;6303;51.504;6.300;2023-04-29T04:32:53;3.58;;;3.28;;
12476;SDS011;6303;51.504;6.300;2023-04-29T04:35:21;3.60;;;3.30;;
12476;SDS011;6303;51.504;6.300;2023-04-29T04:37:49;3.58;;;3.25;;
12476;SDS011;6303;51.504;6.300;2023-04-29T04:40:16;3.30;;;3.10;;
12476;SDS011;6303;51.504;6.300;2023-04-29T04:43:03;3.25;;;3.03;;
12476;SDS011;6303;51.504;6.300;2023-04-29T04:45:30;3.55;;;3.25;;
12476;SDS011;6303;51.504;6.300;2023-04-29T04:47:57;3.38;;;3.08;;
12476;SDS011;6303;51.504;6.300;2023-04-29T04:50:30;3.35;;;3.08;;
12476;SDS011;6303;51.504;6.300;2023-04-29T04:52:57;3.60;;;3.30;;
12476;SDS011;6303;51.504;6.300;2023-04-29T04:55:47;3.05;;;2.85;;
12476;SDS011;6303;51.504;6.300;2023-04-29T04:58:14;3.78;;;3.28;;
12476;SDS011;6303;51.504;6.300;2023-04-29T05:00:43;3.92;;;3.13;;
12476;SDS011;6303;51.504;6.300;2023-04-29T05:03:10;3.80;;;3.22;;
12476;SDS011;6303;51.504;6.300;2023-04-29T05:05:38;5.38;;;4.53;;
12476;SDS011;6303;51.504;6.300;2023-04-29T05:08:06;9.57;;;6.45;;
12476;SDS011;6303;51.504;6.300;2023-04-29T05:10:38;8.95;;;7.13;;
12476;SDS011;6303;51.504;6.300;2023-04-29T05:13:06;8.65;;;7.40;;
12476;SDS011;6303;51.504;6.300;2023-04-29T05:15:33;7.68;;;6.88;;
12476;SDS011;6303;51.504;6.300;2023-04-29T05:18:02;9.35;;;7.60;;
12476;SDS011;6303;51.504;6.300;2023-04-29T05:20:30;9.23;;;7.32;;
12476;SDS011;6303;51.504;6.300;2023-04-29T05:23:00;11.68;;;8.18;;
12476;SDS011;6303;51.504;6.300;2023-04-29T05:25:31;12.18;;;8.55;;
12476;SDS011;6303;51.504;6.300;2023-04-29T05:27:59;9.05;;;7.97;;
12476;SDS011;6303;51.504;6.300;2023-04-29T05:30:30;9.63;;;8.30;;
12476;SDS011;6303;51.504;6.300;2023-04-29T05:32:57;11.20;;;8.95;;
12476;SDS011;6303;51.504;6.300;2023-04-29T05:35:24;11.05;;;8.80;;
12476;SDS011;6303;51.504;6.300;2023-04-29T05:37:53;10.10;;;8.93;;
12476;SDS011;6303;51.504;6.300;2023-04-29T05:40:33;12.35;;;8.80;;
12476;SDS011;6303;51.504;6.300;2023-04-29T05:43:20;11.10;;;9.00;;
12476;SDS011;6303;51.504;6.300;2023-04-29T05:45:47;10.70;;;9.13;;
12476;SDS011;6303;51.504;6.300;2023-04-29T05:48:14;11.25;;;9.13;;
12476;SDS011;6303;51.504;6.300;2023-04-29T05:50:42;9.73;;;7.95;;
12476;SDS011;6303;51.504;6.300;2023-04-29T05:53:10;10.07;;;8.43;;
12476;SDS011;6303;51.504;6.300;2023-04-29T05:55:39;10.77;;;8.10;;
12476;SDS011;6303;51.504;6.300;2023-04-29T05:58:09;9.60;;;8.30;;
12476;SDS011;6303;51.504;6.300;2023-04-29T06:00:36;9.52;;;7.95;;
12476;SDS011;6303;51.504;6.300;2023-04-29T06:03:10;8.65;;;7.55;;
12476;SDS011;6303;51.504;6.300;2023-04-29T06:05:37;9.77;;;7.90;;
12476;SDS011;6303;51.504;6.300;2023-04-29T06:08:27;10.05;;;8.63;;
12476;SDS011;6303;51.504;6.300;2023-04-29T06:11:05;9.95;;;8.43;;
12476;SDS011;6303;51.504;6.300;2023-04-29T06:13:32;9.48;;;8.40;;
12476;SDS011;6303;51.504;6.300;2023-04-29T06:15:59;10.60;;;8.30;;
12476;SDS011;6303;51.504;6.300;2023-04-29T06:18:30;9.77;;;8.63;;
12476;SDS011;6303;51.504;6.300;2023-04-29T06:20:58;11.77;;;8.73;;
12476;SDS011;6303;51.504;6.300;2023-04-29T06:23:25;11.18;;;8.10;;
12476;SDS011;6303;51.504;6.300;2023-04-29T06:25:52;10.32;;;8.50;;
12476;SDS011;6303;51.504;6.300;2023-04-29T06:28:22;10.32;;;8.27;;
12476;SDS011;6303;51.504;6.300;2023-04-29T06:30:49;9.95;;;7.82;;
12476;SDS011;6303;51.504;6.300;2023-04-29T06:33:17;8.23;;;7.28;;
12476;SDS011;6303;51.504;6.300;2023-04-29T06:35:44;8.25;;;7.13;;
12476;SDS011;6303;51.504;6.300;2023-04-29T06:38:31;9.07;;;7.00;;
12476;SDS011;6303;51.504;6.300;2023-04-29T06:41:20;8.05;;;6.85;;
12476;SDS011;6303;51.504;6.300;2023-04-29T06:44:07;6.85;;;5.78;;
12476;SDS011;6303;51.504;6.300;2023-04-29T06:46:58;6.75;;;6.03;;
12476;SDS011;6303;51.504;6.300;2023-04-29T06:49:43;9.48;;;5.45;;
12476;SDS011;6303;51.504;6.300;2023-04-29T06:52:11;6.97;;;5.65;;
12476;SDS011;6303;51.504;6.300;2023-04-29T06:54:41;5.88;;;5.38;;
12476;SDS011;6303;51.504;6.300;2023-04-29T06:57:10;6.50;;;5.15;;
12476;SDS011;6303;51.504;6.300;2023-04-29T06:59:38;5.18;;;4.68;;
12476;SDS011;6303;51.504;6.300;2023-04-29T07:02:05;5.50;;;4.70;;
12476;SDS011;6303;51.504;6.300;2023-04-29T07:04:32;4.80;;;4.35;;
12476;SDS011;6303;51.504;6.300;2023-04-29T07:07:01;5.85;;;4.10;;
12476;SDS011;6303;51.504;6.300;2023-04-29T07:09:28;4.95;;;4.18;;
12476;SDS011;6303;51.504;6.300;2023-04-29T07:11:55;4.38;;;3.70;;
12476;SDS011;6303;51.504;6.300;2023-04-29T07:14:22;4.88;;;3.90;;
12476;SDS011;6303;51.504;6.300;2023-04-29T07:16:54;4.88;;;3.75;;
12476;SDS011;6303;51.504;6.300;2023-04-29T07:19:21;4.50;;;3.90;;
12476;SDS011;6303;51.504;6.300;2023-04-29T07:21:48;5.43;;;3.45;;
12476;SDS011;6303;51.504;6.300;2023-04-29T07:24:15;3.85;;;3.50;;
12476;SDS011;6303;51.504;6.300;2023-04-29T07:26:45;4.72;;;3.65;;
12476;SDS011;6303;51.504;6.300;2023-04-29T07:29:14;4.60;;;3.65;;
12476;SDS011;6303;51.504;6.300;2023-04-29T07:31:41;6.47;;;3.85;;
12476;SDS011;6303;51.504;6.300;2023-04-29T07:34:10;6.85;;;3.50;;
12476;SDS011;6303;51.504;6.300;2023-04-29T07:36:37;5.13;;;3.40;;
12476;SDS011;6303;51.504;6.300;2023-04-29T07:39:05;3.92;;;3.45;;
12476;SDS011;6303;51.504;6.300;2023-04-29T07:41:32;4.50;;;3.35;;
12476;SDS011;6303;51.504;6.300;2023-04-29T07:43:59;4.05;;;3.33;;
12476;SDS011;6303;51.504;6.300;2023-04-29T07:46:26;3.20;;;2.90;;
12476;SDS011;6303;51.504;6.300;2023-04-29T07:48:54;3.85;;;3.20;;
12476;SDS011;6303;51.504;6.300;2023-04-29T07:51:23;3.50;;;3.20;;
12476;SDS011;6303;51.504;6.300;2023-04-29T07:53:53;3.20;;;2.90;;
12476;SDS011;6303;51.504;6.300;2023-04-29T07:56:20;3.20;;;2.90;;
12476;SDS011;6303;51.504;6.300;2023-04-29T07:58:47;3.22;;;2.95;;
12476;SDS011;6303;51.504;6.300;2023-04-29T08:01:14;3.55;;;2.75;;
12476;SDS011;6303;51.504;6.300;2023-04-29T08:03:42;3.17;;;2.88;;
12476;SDS011;6303;51.504;6.300;2023-04-29T08:06:11;3.10;;;2.80;;
12476;SDS011;6303;51.504;6.300;2023-04-29T08:08:41;2.90;;;2.70;;
12476;SDS011;6303;51.504;6.300;2023-04-29T08:11:14;2.85;;;2.65;;
12476;SDS011;6303;51.504;6.300;2023-04-29T08:13:41;3.15;;;2.60;;
12476;SDS011;6303;51.504;6.300;2023-04-29T08:16:08;3.20;;;2.90;;
12476;SDS011;6303;51.504;6.300;2023-04-29T08:18:35;4.03;;;2.97;;
12476;SDS011;6303;51.504;6.300;2023-04-29T08:21:02;3.30;;;2.85;;
12476;SDS011;6303;51.504;6.300;2023-04-29T08:23:29;2.95;;;2.65;;
12476;SDS011;6303;51.504;6.300;2023-04-29T08:25:58;3.20;;;2.85;;
12476;SDS011;6303;51.504;6.300;2023-04-29T08:28:25;3.22;;;2.92;;
12476;SDS011;6303;51.504;6.300;2023-04-29T08:30:52;3.10;;;2.80;;
12476;SDS011;6303;51.504;6.300;2023-04-29T08:33:20;3.65;;;2.47;;
12476;SDS011;6303;51.504;6.300;2023-04-29T08:35:47;3.40;;;3.10;;
12476;SDS011;6303;51.504;6.300;2023-04-29T08:38:15;3.58;;;2.88;;
12476;SDS011;6303;51.504;6.300;2023-04-29T08:40:42;3.42;;;2.80;;
12476;SDS011;6303;51.504;6.300;2023-04-29T08:43:12;4.13;;;2.95;;
12476;SDS011;6303;51.504;6.300;2023-04-29T08:45:40;4.03;;;2.72;;
12476;SDS011;6303;51.504;6.300;2023-04-29T08:48:08;6.20;;;3.15;;
12476;SDS011;6303;51.504;6.300;2023-04-29T08:50:36;3.58;;;2.85;;
12476;SDS011;6303;51.504;6.300;2023-04-29T08:53:04;4.45;;;2.80;;
12476;SDS011;6303;51.504;6.300;2023-04-29T08:55:33;4.57;;;2.83;;
12476;SDS011;6303;51.504;6.300;2023-04-29T08:58:01;3.72;;;2.60;;
12476;SDS011;6303;51.504;6.300;2023-04-29T09:00:31;5.13;;;3.10;;
12476;SDS011;6303;51.504;6.300;2023-04-29T09:02:59;3.95;;;3.30;;
12476;SDS011;6303;51.504;6.300;2023-04-29T09:05:30;5.38;;;2.50;;
12476;SDS011;6303;51.504;6.300;2023-04-29T09:08:00;4.55;;;2.70;;
12476;SDS011;6303;51.504;6.300;2023-04-29T09:10:28;3.80;;;2.90;;
12476;SDS011;6303;51.504;6.300;2023-04-29T09:12:56;4.13;;;2.72;;
12476;SDS011;6303;51.504;6.300;2023-04-29T09:15:23;3.78;;;2.92;;
12476;SDS011;6303;51.504;6.300;2023-04-29T09:17:52;4.65;;;3.10;;
12476;SDS011;6303;51.504;6.300;2023-04-29T09:20:25;5.00;;;2.85;;
12476;SDS011;6303;51.504;6.300;2023-04-29T09:22:54;4.50;;;2.97;;
12476;SDS011;6303;51.504;6.300;2023-04-29T09:25:22;3.78;;;2.83;;
12476;SDS011;6303;51.504;6.300;2023-04-29T09:27:50;4.32;;;2.80;;
12476;SDS011;6303;51.504;6.300;2023-04-29T09:30:17;3.22;;;2.92;;
12476;SDS011;6303;51.504;6.300;2023-04-29T09:32:45;4.22;;;2.95;;
12476;SDS011;6303;51.504;6.300;2023-04-29T09:35:28;3.22;;;2.92;;
12476;SDS011;6303;51.504;6.300;2023-04-29T09:38:08;4.20;;;2.90;;
12476;SDS011;6303;51.504;6.300;2023-04-29T09:40:37;3.80;;;2.85;;
12476;SDS011;6303;51.504;6.300;2023-04-29T09:43:10;3.00;;;2.75;;
12476;SDS011;6303;51.504;6.300;2023-04-29T09:45:39;3.03;;;2.70;;
12476;SDS011;6303;51.504;6.300;2023-04-29T09:48:09;2.80;;;2.60;;
12476;SDS011;6303;51.504;6.300;2023-04-29T09:50:37;3.20;;;2.90;;
12476;SDS011;6303;51.504;6.300;2023-04-29T09:53:06;3.53;;;2.70;;
12476;SDS011;6303;51.504;6.300;2023-04-29T09:55:34;3.15;;;2.70;;
12476;SDS011;6303;51.504;6.300;2023-04-29T09:58:02;3.50;;;2.67;;
12476;SDS011;6303;51.504;6.300;2023-04-29T10:00:30;3.35;;;2.80;;
12476;SDS011;6303;51.504;6.300;2023-04-29T10:02:59;3.05;;;2.78;;
12476;SDS011;6303;51.504;6.300;2023-04-29T10:05:28;4.60;;;3.15;;
12476;SDS011;6303;51.504;6.300;2023-04-29T10:07:56;3.15;;;2.78;;
12476;SDS011;6303;51.504;6.300;2023-04-29T10:10:25;3.03;;;2.80;;
12476;SDS011;6303;51.504;6.300;2023-04-29T10:12:53;3.08;;;2.58;;
12476;SDS011;6303;51.504;6.300;2023-04-29T10:15:23;3.10;;;2.80;;
12476;SDS011;6303;51.504;6.300;2023-04-29T10:17:58;3.10;;;2.58;;
12476;SDS011;6303;51.504;6.300;2023-04-29T10:20:38;3.20;;;2.90;;
12476;SDS011;6303;51.504;6.300;2023-04-29T10:23:11;4.20;;;2.88;;
12476;SDS011;6303;51.504;6.300;2023-04-29T10:25:39;2.80;;;2.60;;
12476;SDS011;6303;51.504;6.300;2023-04-29T10:28:09;3.20;;;3.00;;
12476;SDS011;6303;51.504;6.300;2023-04-29T10:30:41;3.28;;;2.97;;
12476;SDS011;6303;51.504;6.300;2023-04-29T10:33:10;2.95;;;2.75;;
12476;SDS011;6303;51.504;6.300;2023-04-29T10:35:38;3.30;;;3.00;;
12476;SDS011;6303;51.504;6.300;2023-04-29T10:38:10;3.13;;;2.83;;
12476;SDS011;6303;51.504;6.300;2023-04-29T10:40:41;2.72;;;2.50;;
12476;SDS011;6303;51.504;6.300;2023-04-29T10:43:10;3.78;;;2.80;;
12476;SDS011;6303;51.504;6.300;2023-04-29T10:45:38;2.55;;;2.35;;
12476;SDS011;6303;51.504;6.300;2023-04-29T10:48:12;3.20;;;3.00;;
12476;SDS011;6303;51.504;6.300;2023-04-29T10:53:26;4.15;;;3.28;;
12476;SDS011;6303;51.504;6.300;2023-04-29T10:55:55;4.68;;;3.25;;
12476;SDS011;6303;51.504;6.300;2023-04-29T10:58:36;2.95;;;2.70;;
12476;SDS011;6303;51.504;6.300;2023-04-29T11:01:11;3.25;;;2.80;;
12476;SDS011;6303;51.504;6.300;2023-04-29T11:03:49;3.50;;;3.20;;
12476;SDS011;6303;51.504;6.300;2023-04-29T11:06:24;3.97;;;2.90;;
12476;SDS011;6303;51.504;6.300;2023-04-29T11:09:07;3.08;;;2.80;;
12476;SDS011;6303;51.504;6.300;2023-04-29T11:14:14;3.35;;;2.83;;
12476;SDS011;6303;51.504;6.300;2023-04-29T11:16:50;2.80;;;2.45;;
12476;SDS011;6303;51.504;6.300;2023-04-29T11:19:18;3.20;;;2.90;;
12476;SDS011;6303;51.504;6.300;2023-04-29T11:21:47;3.20;;;2.90;;
12476;SDS011;6303;51.504;6.300;2023-04-29T11:24:14;3.30;;;3.05;;
12476;SDS011;6303;51.504;6.300;2023-04-29T11:26:41;2.90;;;2.55;;
12476;SDS011;6303;51.504;6.300;2023-04-29T11:29:10;3.05;;;2.63;;
12476;SDS011;6303;51.504;6.300;2023-04-29T11:31:37;3.50;;;3.08;;
12476;SDS011;6303;51.504;6.300;2023-04-29T11:34:04;3.00;;;2.72;;
12476;SDS011;6303;51.504;6.300;2023-04-29T11:36:32;3.45;;;2.80;;
12476;SDS011;6303;51.504;6.300;2023-04-29T11:39:01;3.30;;;2.78;;
12476;SDS011;6303;51.504;6.300;2023-04-29T11:41:29;2.85;;;2.53;;
12476;SDS011;6303;51.504;6.300;2023-04-29T11:43:57;3.42;;;3.00;;
12476;SDS011;6303;51.504;6.300;2023-04-29T11:46:25;3.28;;;2.97;;
12476;SDS011;6303;51.504;6.300;2023-04-29T11:48:56;3.63;;;3.15;;
12476;SDS011;6303;51.504;6.300;2023-04-29T11:51:24;3.45;;;2.50;;
12476;SDS011;6303;51.504;6.300;2023-04-29T11:53:52;3.13;;;2.67;;
12476;SDS011;6303;51.504;6.300;2023-04-29T11:56:22;4.13;;;2.80;;
12476;SDS011;6303;51.504;6.300;2023-04-29T11:58:52;3.80;;;2.80;;
12476;SDS011;6303;51.504;6.300;2023-04-29T12:01:20;3.30;;;2.70;;
12476;SDS011;6303;51.504;6.300;2023-04-29T12:03:48;3.55;;;2.58;;
12476;SDS011;6303;51.504;6.300;2023-04-29T12:06:15;4.18;;;2.80;;
12476;SDS011;6303;51.504;6.300;2023-04-29T12:08:42;3.00;;;2.70;;
12476;SDS011;6303;51.504;6.300;2023-04-29T12:11:12;3.20;;;2.90;;
12476;SDS011;6303;51.504;6.300;2023-04-29T12:13:41;4.57;;;2.70;;
12476;SDS011;6303;51.504;6.300;2023-04-29T12:16:08;4.00;;;2.70;;
12476;SDS011;6303;51.504;6.300;2023-04-29T12:18:36;3.17;;;2.80;;
12476;SDS011;6303;51.504;6.300;2023-04-29T12:21:03;3.50;;;2.72;;
12476;SDS011;6303;51.504;6.300;2023-04-29T12:23:30;2.67;;;2.47;;
12476;SDS011;6303;51.504;6.300;2023-04-29T12:25:58;3.22;;;2.90;;
12476;SDS011;6303;51.504;6.300;2023-04-29T12:28:26;4.20;;;3.00;;
12476;SDS011;6303;51.504;6.300;2023-04-29T12:30:56;4.15;;;3.20;;
12476;SDS011;6303;51.504;6.300;2023-04-29T12:33:26;3.00;;;2.80;;
12476;SDS011;6303;51.504;6.300;2023-04-29T12:35:55;2.95;;;2.75;;
12476;SDS011;6303;51.504;6.300;2023-04-29T12:38:24;3.10;;;2.80;;
12476;SDS011;6303;51.504;6.300;2023-04-29T12:40:52;2.70;;;2.45;;
12476;SDS011;6303;51.504;6.300;2023-04-29T12:43:24;3.53;;;2.67;;
12476;SDS011;6303;51.504;6.300;2023-04-29T12:45:53;2.90;;;2.70;;
12476;SDS011;6303;51.504;6.300;2023-04-29T12:48:22;3.10;;;2.80;;
12476;SDS011;6303;51.504;6.300;2023-04-29T12:50:56;2.60;;;2.40;;
12476;SDS011;6303;51.504;6.300;2023-04-29T12:53:24;2.78;;;2.47;;
12476;SDS011;6303;51.504;6.300;2023-04-29T12:55:51;3.00;;;2.70;;
12476;SDS011;6303;51.504;6.300;2023-04-29T12:58:19;2.70;;;2.50;;
12476;SDS011;6303;51.504;6.300;2023-04-29T13:00:46;2.97;;;2.60;;
12476;SDS011;6303;51.504;6.300;2023-04-29T13:03:13;2.83;;;2.60;;
12476;SDS011;6303;51.504;6.300;2023-04-29T13:05:41;2.95;;;2.67;;
12476;SDS011;6303;51.504;6.300;2023-04-29T13:08:08;3.13;;;2.50;;
12476;SDS011;6303;51.504;6.300;2023-04-29T13:10:35;3.03;;;2.75;;
12476;SDS011;6303;51.504;6.300;2023-04-29T13:13:03;3.33;;;2.80;;
12476;SDS011;6303;51.504;6.300;2023-04-29T13:15:30;2.70;;;2.50;;
12476;SDS011;6303;51.504;6.300;2023-04-29T13:17:58;2.63;;;2.42;;
12476;SDS011;6303;51.504;6.300;2023-04-29T13:20:25;4.03;;;2.67;;
12476;SDS011;6303;51.504;6.300;2023-04-29T13:22:54;4.05;;;2.50;;
12476;SDS011;6303;51.504;6.300;2023-04-29T13:25:21;2.70;;;2.42;;
12476;SDS011;6303;51.504;6.300;2023-04-29T13:27:48;5.57;;;2.80;;
12476;SDS011;6303;51.504;6.300;2023-04-29T13:30:15;3.65;;;2.90;;
12476;SDS011;6303;51.504;6.300;2023-04-29T13:32:42;3.58;;;2.63;;
12476;SDS011;6303;51.504;6.300;2023-04-29T13:35:09;2.88;;;2.50;;
12476;SDS011;6303;51.504;6.300;2023-04-29T13:37:36;3.78;;;2.65;;
12476;SDS011;6303;51.504;6.300;2023-04-29T13:40:05;2.85;;;2.40;;
12476;SDS011;6303;51.504;6.300;2023-04-29T13:42:33;4.45;;;2.22;;
12476;SDS011;6303;51.504;6.300;2023-04-29T13:45:01;2.92;;;2.53;;
12476;SDS011;6303;51.504;6.300;2023-04-29T13:47:28;2.55;;;2.35;;
12476;SDS011;6303;51.504;6.300;2023-04-29T13:49:55;4.63;;;2.50;;
12476;SDS011;6303;51.504;6.300;2023-04-29T13:52:23;2.97;;;2.60;;
12476;SDS011;6303;51.504;6.300;2023-04-29T13:54:50;2.92;;;2.50;;
12476;SDS011;6303;51.504;6.300;2023-04-29T13:57:19;3.85;;;2.40;;
12476;SDS011;6303;51.504;6.300;2023-04-29T13:59:46;2.72;;;2.42;;
12476;SDS011;6303;51.504;6.300;2023-04-29T14:02:13;2.72;;;2.50;;
12476;SDS011;6303;51.504;6.300;2023-04-29T14:04:40;2.50;;;2.30;;
12476;SDS011;6303;51.504;6.300;2023-04-29T14:07:07;4.45;;;2.55;;
12476;SDS011;6303;51.504;6.300;2023-04-29T14:09:34;2.55;;;2.40;;
12476;SDS011;6303;51.504;6.300;2023-04-29T14:12:01;2.58;;;2.25;;
12476;SDS011;6303;51.504;6.300;2023-04-29T14:14:30;3.15;;;2.40;;
12476;SDS011;6303;51.504;6.300;2023-04-29T14:16:57;3.92;;;2.65;;
12476;SDS011;6303;51.504;6.300;2023-04-29T14:19:25;4.03;;;2.40;;
12476;SDS011;6303;51.504;6.300;2023-04-29T14:21:52;2.60;;;2.40;;
12476;SDS011;6303;51.504;6.300;2023-04-29T14:24:19;2.53;;;2.33;;
12476;SDS011;6303;51.504;6.300;2023-04-29T14:26:47;2.40;;;2.20;;
12476;SDS011;6303;51.504;6.300;2023-04-29T14:29:14;3.10;;;2.45;;
12476;SDS011;6303;51.504;6.300;2023-04-29T14:31:42;2.70;;;2.50;;
12476;SDS011;6303;51.504;6.300;2023-04-29T14:34:10;2.65;;;2.40;;
12476;SDS011;6303;51.504;6.300;2023-04-29T14:36:37;2.60;;;2.40;;
12476;SDS011;6303;51.504;6.300;2023-04-29T14:39:05;2.42;;;2.20;;
12476;SDS011;6303;51.504;6.300;2023-04-29T14:41:32;4.43;;;2.30;;
12476;SDS011;6303;51.504;6.300;2023-04-29T14:43:59;2.50;;;2.17;;
12476;SDS011;6303;51.504;6.300;2023-04-29T14:46:26;4.38;;;3.00;;
12476;SDS011;6303;51.504;6.300;2023-04-29T14:48:55;3.60;;;2.30;;
12476;SDS011;6303;51.504;6.300;2023-04-29T14:51:22;2.47;;;2.28;;
12476;SDS011;6303;51.504;6.300;2023-04-29T14:53:51;6.20;;;2.60;;
12476;SDS011;6303;51.504;6.300;2023-04-29T14:56:18;5.72;;;2.70;;
12476;SDS011;6303;51.504;6.300;2023-04-29T14:58:45;5.90;;;3.10;;
12476;SDS011;6303;51.504;6.300;2023-04-29T15:01:12;8.93;;;3.55;;
12476;SDS011;6303;51.504;6.300;2023-04-29T15:03:39;10.93;;;3.65;;
12476;SDS011;6303;51.504;6.300;2023-04-29T15:06:08;8.55;;;3.72;;
12476;SDS011;6303;51.504;6.300;2023-04-29T15:08:35;10.77;;;3.90;;
12476;SDS011;6303;51.504;6.300;2023-04-29T15:11:03;19.85;;;5.85;;
12476;SDS011;6303;51.504;6.300;2023-04-29T15:13:30;21.17;;;5.90;;
12476;SDS011;6303;51.504;6.300;2023-04-29T15:15:57;16.73;;;5.35;;
12476;SDS011;6303;51.504;6.300;2023-04-29T15:18:24;19.35;;;5.95;;
12476;SDS011;6303;51.504;6.300;2023-04-29T15:20:51;9.90;;;5.00;;